sensor_id;sensor_type;location;lat;lon;timestamp;pressure;altitude;pressure_sealevel;temperature;humidity
23223;BME280;11780;13.904;100.620;2023-03-20T00:00:24;101037.25;;;30.92;69.89
23223;BME280;11780;13.904;100.620;2023-03-20T00:02:55;101045.34;;;30.89;70.60
23223;BME280;11780;13.904;100.620;2023-03-20T00:05:26;101054.13;;;30.91;70.02
23223;BME280;11780;13.904;100.620;2023-03-20T00:07:56;101046.19;;;30.89;70.07
23223;BME280;11780;13.904;100.620;2023-03-20T00:10:39;101065.69;;;30.93;70.27
23223;BME280;11780;13.904;100.620;2023-03-20T00:13:23;101049.41;;;30.91;70.26
23223;BME280;11780;13.904;100.620;2023-03-20T00:15:56;101055.78;;;30.92;70.04
23223;BME280;11780;13.904;100.620;2023-03-20T00:18:26;101060.16;;;30.93;70.17
23223;BME280;11780;13.904;100.620;2023-03-20T00:20:57;101060.97;;;30.93;70.38
23223;BME280;11780;13.904;100.620;2023-03-20T00:23:27;101067.63;;;30.92;70.18
23223;BME280;11780;13.904;100.620;2023-03-20T00:25:58;101070.09;;;30.94;70.16
23223;BME280;11780;13.904;100.620;2023-03-20T00:28:40;101068.97;;;30.95;70.15
23223;BME280;11780;13.904;100.620;2023-03-20T00:31:34;101068.97;;;30.95;70.08
23223;BME280;11780;13.904;100.620;2023-03-20T00:34:11;101068.97;;;30.95;70.47
23223;BME280;11780;13.904;100.620;2023-03-20T00:36:41;101076.13;;;30.96;70.12
23223;BME280;11780;13.904;100.620;2023-03-20T00:39:12;101075.63;;;30.94;70.10
23223;BME280;11780;13.904;100.620;2023-03-20T00:42:03;101080.31;;;30.93;70.26
23223;BME280;11780;13.904;100.620;2023-03-20T00:44:47;101080.31;;;30.93;70.22
23223;BME280;11780;13.904;100.620;2023-03-20T00:47:20;101075.63;;;30.94;69.87
23223;BME280;11780;13.904;100.620;2023-03-20T00:49:52;101087.16;;;30.96;69.61
23223;BME280;11780;13.904;100.620;2023-03-20T00:52:25;101092.38;;;30.97;69.71
23223;BME280;11780;13.904;100.620;2023-03-20T00:54:56;101086.34;;;30.95;69.79
23223;BME280;11780;13.904;100.620;2023-03-20T00:57:38;101098.22;;;30.96;69.69
23223;BME280;11780;13.904;100.620;2023-03-20T01:02:44;101089.59;;;30.97;69.79
23223;BME280;11780;13.904;100.620;2023-03-20T01:05:14;101104.25;;;30.98;69.87
23223;BME280;11780;13.904;100.620;2023-03-20T01:07:45;101102.28;;;30.98;69.86
23223;BME280;11780;13.904;100.620;2023-03-20T01:10:16;101105.84;;;30.99;69.74
23223;BME280;11780;13.904;100.620;2023-03-20T01:12:47;101112.19;;;30.99;69.62
23223;BME280;11780;13.904;100.620;2023-03-20T01:15:22;101116.59;;;31.01;69.59
23223;BME280;11780;13.904;100.620;2023-03-20T01:17:54;101113.84;;;31.01;69.75
23223;BME280;11780;13.904;100.620;2023-03-20T01:20:28;101116.59;;;31.01;69.66
23223;BME280;11780;13.904;100.620;2023-03-20T01:22:58;101106.34;;;31.01;69.80
23223;BME280;11780;13.904;100.620;2023-03-20T01:25:28;101110.75;;;31.02;69.43
23223;BME280;11780;13.904;100.620;2023-03-20T01:27:59;101114.63;;;31.01;69.57
23223;BME280;11780;13.904;100.620;2023-03-20T01:30:30;101122.94;;;31.01;69.67
23223;BME280;11780;13.904;100.620;2023-03-20T01:33:10;101129.28;;;31.02;69.67
23223;BME280;11780;13.904;100.620;2023-03-20T01:35:41;101140.00;;;31.03;69.82
23223;BME280;11780;13.904;100.620;2023-03-20T01:38:13;101132.56;;;31.04;69.76
23223;BME280;11780;13.904;100.620;2023-03-20T01:43:27;101156.75;;;31.07;69.54
23223;BME280;11780;13.904;100.620;2023-03-20T01:51:30;101160.53;;;31.11;69.21
23223;BME280;11780;13.904;100.620;2023-03-20T01:54:12;101161.38;;;31.11;69.39
23223;BME280;11780;13.904;100.620;2023-03-20T01:57:37;101169.88;;;31.15;69.36
23223;BME280;11780;13.904;100.620;2023-03-20T02:00:04;101169.88;;;31.15;69.36
23223;BME280;11780;13.904;100.620;2023-03-20T02:02:45;101178.94;;;31.16;69.18
23223;BME280;11780;13.904;100.620;2023-03-20T02:05:35;101175.38;;;31.15;69.25
23223;BME280;11780;13.904;100.620;2023-03-20T02:08:28;101177.03;;;31.16;69.02
23223;BME280;11780;13.904;100.620;2023-03-20T02:11:03;101177.81;;;31.17;69.16
23223;BME280;11780;13.904;100.620;2023-03-20T02:13:34;101178.31;;;31.19;68.80
23223;BME280;11780;13.904;100.620;2023-03-20T02:16:14;101184.97;;;31.18;69.21
23223;BME280;11780;13.904;100.620;2023-03-20T02:19:06;101184.97;;;31.18;68.91
23223;BME280;11780;13.904;100.620;2023-03-20T02:27:05;101188.25;;;31.20;68.71
23223;BME280;11780;13.904;100.620;2023-03-20T02:45:27;101177.88;;;31.25;68.38
23223;BME280;11780;13.904;100.620;2023-03-20T02:51:37;101188.63;;;31.27;67.90
23223;BME280;11780;13.904;100.620;2023-03-20T02:57:04;101178.38;;;31.27;67.99
23223;BME280;11780;13.904;100.620;2023-03-20T02:59:50;101168.97;;;31.28;67.88
23223;BME280;11780;13.904;100.620;2023-03-20T03:02:51;101177.25;;;31.28;68.29
23223;BME280;11780;13.904;100.620;2023-03-20T03:06:50;101175.63;;;31.27;68.18
23223;BME280;11780;13.904;100.620;2023-03-20T03:09:13;101178.38;;;31.27;68.86
23223;BME280;11780;13.904;100.620;2023-03-20T03:12:14;101184.41;;;31.29;67.82
23223;BME280;11780;13.904;100.620;2023-03-20T03:14:52;101183.28;;;31.31;67.85
23223;BME280;11780;13.904;100.620;2023-03-20T03:17:44;101182.16;;;31.32;67.93
23223;BME280;11780;13.904;100.620;2023-03-20T03:20:37;101177.44;;;31.32;67.70
23223;BME280;11780;13.904;100.620;2023-03-20T03:23:28;101175.16;;;31.34;67.84
23223;BME280;11780;13.904;100.620;2023-03-20T03:26:01;101178.25;;;31.33;68.03
23223;BME280;11780;13.904;100.620;2023-03-20T03:28:43;101166.06;;;31.34;68.09
23223;BME280;11780;13.904;100.620;2023-03-20T03:31:36;101174.88;;;31.36;67.64
23223;BME280;11780;13.904;100.620;2023-03-20T03:34:24;101169.63;;;31.34;67.54
23223;BME280;11780;13.904;100.620;2023-03-20T03:37:10;101163.81;;;31.36;67.79
23223;BME280;11780;13.904;100.620;2023-03-20T03:39:51;101162.69;;;31.37;67.29
23223;BME280;11780;13.904;100.620;2023-03-20T03:42:57;101157.16;;;31.37;67.55
23223;BME280;11780;13.904;100.620;2023-03-20T03:45:43;101163.47;;;31.37;67.75
23223;BME280;11780;13.904;100.620;2023-03-20T03:48:42;101150.47;;;31.38;67.45
23223;BME280;11780;13.904;100.620;2023-03-20T03:51:34;101149.34;;;31.39;67.37
23223;BME280;11780;13.904;100.620;2023-03-20T03:54:34;101145.44;;;31.40;67.19
23223;BME280;11780;13.904;100.620;2023-03-20T03:57:52;101133.56;;;31.39;66.95
23223;BME280;11780;13.904;100.620;2023-03-20T04:00:45;101128.84;;;31.40;67.09
23223;BME280;11780;13.904;100.620;2023-03-20T04:03:43;101123.31;;;31.40;66.90
23223;BME280;11780;13.904;100.620;2023-03-20T04:06:15;101127.72;;;31.41;67.15
23223;BME280;11780;13.904;100.620;2023-03-20T04:08:45;101126.28;;;31.43;67.08
23223;BME280;11780;13.904;100.620;2023-03-20T04:11:18;101116.03;;;31.44;67.13
23223;BME280;11780;13.904;100.620;2023-03-20T04:13:50;101100.56;;;31.43;66.83
23223;BME280;11780;13.904;100.620;2023-03-20T04:16:22;101097.81;;;31.43;67.02
23223;BME280;11780;13.904;100.620;2023-03-20T04:18:53;101098.31;;;31.45;66.88
23223;BME280;11780;13.904;100.620;2023-03-20T04:21:24;101095.53;;;31.45;66.78
23223;BME280;11780;13.904;100.620;2023-03-20T04:24:13;101084.16;;;31.47;66.73
23223;BME280;11780;13.904;100.620;2023-03-20T04:26:43;101084.00;;;31.43;67.26
23223;BME280;11780;13.904;100.620;2023-03-20T04:29:14;101082.22;;;31.47;66.54
23223;BME280;11780;13.904;100.620;2023-03-20T04:31:58;101082.22;;;31.47;66.77
23223;BME280;11780;13.904;100.620;2023-03-20T04:34:46;101070.84;;;31.49;66.63
23223;BME280;11780;13.904;100.620;2023-03-20T04:37:34;101076.06;;;31.50;66.70
23223;BME280;11780;13.904;100.620;2023-03-20T04:40:23;101068.56;;;31.51;66.77
23223;BME280;11780;13.904;100.620;2023-03-20T04:42:53;101058.34;;;31.51;66.37
23223;BME280;11780;13.904;100.620;2023-03-20T04:45:39;101054.44;;;31.52;66.20
23223;BME280;11780;13.904;100.620;2023-03-20T04:48:09;101053.28;;;31.53;66.36
23223;BME280;11780;13.904;100.620;2023-03-20T04:50:40;101054.91;;;31.54;66.04
23223;BME280;11780;13.904;100.620;2023-03-20T04:53:11;101049.38;;;31.54;66.27
23223;BME280;11780;13.904;100.620;2023-03-20T04:55:43;101050.22;;;31.55;66.23
23223;BME280;11780;13.904;100.620;2023-03-20T04:58:33;101037.69;;;31.57;66.07
23223;BME280;11780;13.904;100.620;2023-03-20T05:01:05;101042.41;;;31.57;66.16
23223;BME280;11780;13.904;100.620;2023-03-20T05:03:35;101031.03;;;31.58;65.97
23223;BME280;11780;13.904;100.620;2023-03-20T05:06:06;101023.56;;;31.59;66.18
23223;BME280;11780;13.904;100.620;2023-03-20T05:08:40;101016.56;;;31.62;66.22
23223;BME280;11780;13.904;100.620;2023-03-20T05:11:10;101003.53;;;31.62;66.04
23223;BME280;11780;13.904;100.620;2023-03-20T05:13:58;101001.09;;;31.61;66.16
23223;BME280;11780;13.904;100.620;2023-03-20T05:16:42;100985.00;;;31.63;65.85
23223;BME280;11780;13.904;100.620;2023-03-20T05:19:35;100982.53;;;31.61;65.83
23223;BME280;11780;13.904;100.620;2023-03-20T05:22:31;100976.72;;;31.63;65.88
23223;BME280;11780;13.904;100.620;2023-03-20T05:25:24;100975.56;;;31.64;65.70
23223;BME280;11780;13.904;100.620;2023-03-20T05:28:12;100967.28;;;31.64;65.61
23223;BME280;11780;13.904;100.620;2023-03-20T05:31:03;100960.13;;;31.63;65.76
23223;BME280;11780;13.904;100.620;2023-03-20T05:33:56;100948.41;;;31.66;65.30
23223;BME280;11780;13.904;100.620;2023-03-20T05:36:48;100951.69;;;31.68;65.29
23223;BME280;11780;13.904;100.620;2023-03-20T05:39:42;100930.34;;;31.68;65.46
23223;BME280;11780;13.904;100.620;2023-03-20T05:42:25;100930.53;;;31.72;65.39
23223;BME280;11780;13.904;100.620;2023-03-20T05:45:30;100923.56;;;31.74;65.39
23223;BME280;11780;13.904;100.620;2023-03-20T05:48:19;100915.25;;;31.74;65.50
23223;BME280;11780;13.904;100.620;2023-03-20T05:51:07;100902.72;;;31.77;65.60
23223;BME280;11780;13.904;100.620;2023-03-20T05:53:52;100904.34;;;31.78;65.30
23223;BME280;11780;13.904;100.620;2023-03-20T05:56:43;100894.09;;;31.79;65.00
23223;BME280;11780;13.904;100.620;2023-03-20T05:59:48;100885.47;;;31.80;65.30
23223;BME280;11780;13.904;100.620;2023-03-20T06:02:39;100871.16;;;31.78;65.14
23223;BME280;11780;13.904;100.620;2023-03-20T06:05:33;100861.72;;;31.79;65.21
23223;BME280;11780;13.904;100.620;2023-03-20T06:08:04;100871.00;;;31.83;65.16
23223;BME280;11780;13.904;100.620;2023-03-20T06:10:35;100870.66;;;31.85;64.90
23223;BME280;11780;13.904;100.620;2023-03-20T06:13:05;100859.25;;;31.86;64.95
23223;BME280;11780;13.904;100.620;2023-03-20T06:15:35;100849.81;;;31.87;65.06
23223;BME280;11780;13.904;100.620;2023-03-20T06:18:13;100838.75;;;31.87;65.08
23223;BME280;11780;13.904;100.620;2023-03-20T06:20:44;100833.72;;;31.89;65.15
23223;BME280;11780;13.904;100.620;2023-03-20T06:23:32;100833.72;;;31.89;65.04
23223;BME280;11780;13.904;100.620;2023-03-20T06:26:20;100823.13;;;31.92;64.44
23223;BME280;11780;13.904;100.620;2023-03-20T06:29:03;100811.72;;;31.93;64.53
23223;BME280;11780;13.904;100.620;2023-03-20T06:31:35;100803.78;;;31.92;64.51
23223;BME280;11780;13.904;100.620;2023-03-20T06:34:10;100797.09;;;31.93;64.69
23223;BME280;11780;13.904;100.620;2023-03-20T06:36:58;100794.34;;;31.93;64.62
23223;BME280;11780;13.904;100.620;2023-03-20T06:39:44;100783.63;;;31.91;64.55
23223;BME280;11780;13.904;100.620;2023-03-20T06:42:32;100779.72;;;31.92;64.42
23223;BME280;11780;13.904;100.620;2023-03-20T06:45:21;100772.22;;;31.93;64.14
23223;BME280;11780;13.904;100.620;2023-03-20T06:47:51;100776.94;;;31.92;64.37
23223;BME280;11780;13.904;100.620;2023-03-20T06:50:21;100764.41;;;31.95;64.25
23223;BME280;11780;13.904;100.620;2023-03-20T06:52:52;100762.41;;;31.95;64.40
23223;BME280;11780;13.904;100.620;2023-03-20T06:55:40;100758.22;;;31.98;64.36
23223;BME280;11780;13.904;100.620;2023-03-20T06:58:10;100750.38;;;32.00;64.15
23223;BME280;11780;13.904;100.620;2023-03-20T07:00:41;100751.53;;;31.99;64.29
23223;BME280;11780;13.904;100.620;2023-03-20T07:03:29;100741.41;;;32.03;63.92
23223;BME280;11780;13.904;100.620;2023-03-20T07:06:01;100744.16;;;32.03;63.94
23223;BME280;11780;13.904;100.620;2023-03-20T07:08:47;100736.03;;;32.07;63.83
23223;BME280;11780;13.904;100.620;2023-03-20T07:11:36;100726.13;;;32.06;63.75
23223;BME280;11780;13.904;100.620;2023-03-20T07:14:08;100723.00;;;32.07;63.49
23223;BME280;11780;13.904;100.620;2023-03-20T07:16:46;100708.69;;;32.05;64.03
23223;BME280;11780;13.904;100.620;2023-03-20T07:19:17;100711.44;;;32.05;63.66
23223;BME280;11780;13.904;100.620;2023-03-20T07:21:55;100708.81;;;32.09;63.89
23223;BME280;11780;13.904;100.620;2023-03-20T07:24:41;100701.84;;;32.11;63.33
23223;BME280;11780;13.904;100.620;2023-03-20T07:27:31;100700.22;;;32.10;63.45
23223;BME280;11780;13.904;100.620;2023-03-20T07:30:03;100696.28;;;32.11;63.51
23223;BME280;11780;13.904;100.620;2023-03-20T07:32:35;100685.22;;;32.11;63.61
23223;BME280;11780;13.904;100.620;2023-03-20T07:35:06;100678.56;;;32.12;63.61
23223;BME280;11780;13.904;100.620;2023-03-20T07:37:39;100684.56;;;32.14;63.58
23223;BME280;11780;13.904;100.620;2023-03-20T07:40:28;100680.66;;;32.15;63.80
23223;BME280;11780;13.904;100.620;2023-03-20T07:43:03;100676.41;;;32.18;63.15
23223;BME280;11780;13.904;100.620;2023-03-20T07:46:21;100669.72;;;32.19;63.21
23223;BME280;11780;13.904;100.620;2023-03-20T07:49:09;100659.44;;;32.19;63.41
23223;BME280;11780;13.904;100.620;2023-03-20T07:51:40;100656.38;;;32.21;63.14
23223;BME280;11780;13.904;100.620;2023-03-20T07:54:10;100653.59;;;32.21;63.17
23223;BME280;11780;13.904;100.620;2023-03-20T07:56:41;100651.63;;;32.22;63.13
23223;BME280;11780;13.904;100.620;2023-03-20T07:59:12;100652.09;;;32.24;63.17
23223;BME280;11780;13.904;100.620;2023-03-20T08:01:42;100652.91;;;32.24;62.82
23223;BME280;11780;13.904;100.620;2023-03-20T08:04:30;100642.19;;;32.23;62.95
23223;BME280;11780;13.904;100.620;2023-03-20T08:07:00;100637.78;;;32.22;62.90
23223;BME280;11780;13.904;100.620;2023-03-20T08:09:30;100641.69;;;32.20;63.04
23223;BME280;11780;13.904;100.620;2023-03-20T08:12:01;100640.25;;;32.23;63.05
23223;BME280;11780;13.904;100.620;2023-03-20T08:14:49;100650.13;;;32.24;62.88
23223;BME280;11780;13.904;100.620;2023-03-20T08:17:19;100629.97;;;32.24;62.91
23223;BME280;11780;13.904;100.620;2023-03-20T08:19:49;100638.25;;;32.24;62.71
23223;BME280;11780;13.904;100.620;2023-03-20T08:22:34;100635.50;;;32.24;62.78
23223;BME280;11780;13.904;100.620;2023-03-20T08:25:05;100628.81;;;32.25;62.51
23223;BME280;11780;13.904;100.620;2023-03-20T08:27:37;100628.00;;;32.24;62.80
23223;BME280;11780;13.904;100.620;2023-03-20T08:30:25;100625.75;;;32.26;62.57
23223;BME280;11780;13.904;100.620;2023-03-20T08:32:55;100617.91;;;32.28;62.41
23223;BME280;11780;13.904;100.620;2023-03-20T08:35:56;100614.81;;;32.30;62.47
23223;BME280;11780;13.904;100.620;2023-03-20T08:38:45;100623.44;;;32.28;62.11
23223;BME280;11780;13.904;100.620;2023-03-20T08:41:32;100613.19;;;32.29;62.09
23223;BME280;11780;13.904;100.620;2023-03-20T08:44:21;100611.56;;;32.28;62.17
23223;BME280;11780;13.904;100.620;2023-03-20T08:46:51;100610.44;;;32.29;62.15
23223;BME280;11780;13.904;100.620;2023-03-20T08:49:23;100598.22;;;32.30;61.77
23223;BME280;11780;13.904;100.620;2023-03-20T08:51:54;100597.75;;;32.28;61.69
23223;BME280;11780;13.904;100.620;2023-03-20T08:54:39;100607.66;;;32.29;61.79
23223;BME280;11780;13.904;100.620;2023-03-20T08:57:09;100595.44;;;32.30;61.41
23223;BME280;11780;13.904;100.620;2023-03-20T08:59:39;100594.16;;;32.27;61.32
23223;BME280;11780;13.904;100.620;2023-03-20T09:02:10;100590.59;;;32.27;61.23
23223;BME280;11780;13.904;100.620;2023-03-20T09:04:59;100590.59;;;32.27;61.77
23223;BME280;11780;13.904;100.620;2023-03-20T09:07:47;100596.13;;;32.27;61.83
23223;BME280;11780;13.904;100.620;2023-03-20T09:10:18;100589.44;;;32.28;61.44
23223;BME280;11780;13.904;100.620;2023-03-20T09:12:48;100583.91;;;32.28;61.60
23223;BME280;11780;13.904;100.620;2023-03-20T09:15:18;100579.16;;;32.28;61.34
23223;BME280;11780;13.904;100.620;2023-03-20T09:17:48;100584.69;;;32.28;61.13
23223;BME280;11780;13.904;100.620;2023-03-20T09:20:18;100582.41;;;32.30;60.96
23223;BME280;11780;13.904;100.620;2023-03-20T09:22:48;100595.09;;;32.31;61.00
23223;BME280;11780;13.904;100.620;2023-03-20T09:25:18;100583.22;;;32.31;61.16
23223;BME280;11780;13.904;100.620;2023-03-20T09:28:07;100586.00;;;32.31;61.33
23223;BME280;11780;13.904;100.620;2023-03-20T09:30:37;100587.59;;;32.32;61.10
23223;BME280;11780;13.904;100.620;2023-03-20T09:33:07;100577.69;;;32.31;60.77
23223;BME280;11780;13.904;100.620;2023-03-20T09:35:38;100580.47;;;32.31;60.95
23223;BME280;11780;13.904;100.620;2023-03-20T09:38:10;100584.38;;;32.30;60.49
23223;BME280;11780;13.904;100.620;2023-03-20T09:43:36;100588.78;;;32.31;60.50
23223;BME280;11780;13.904;100.620;2023-03-20T09:46:23;100591.06;;;32.29;60.47
23223;BME280;11780;13.904;100.620;2023-03-20T09:51:45;100589.09;;;32.29;60.56
23223;BME280;11780;13.904;100.620;2023-03-20T09:54:35;100597.06;;;32.31;60.39
23223;BME280;11780;13.904;100.620;2023-03-20T09:57:27;100599.00;;;32.30;60.13
23223;BME280;11780;13.904;100.620;2023-03-20T10:00:02;100588.78;;;32.31;60.18
23223;BME280;11780;13.904;100.620;2023-03-20T10:03:08;100582.41;;;32.30;60.18
23223;BME280;11780;13.904;100.620;2023-03-20T10:05:50;100581.63;;;32.30;60.08
23223;BME280;11780;13.904;100.620;2023-03-20T10:08:32;100590.72;;;32.30;60.10
23223;BME280;11780;13.904;100.620;2023-03-20T10:13:52;100578.50;;;32.31;60.24
23223;BME280;11780;13.904;100.620;2023-03-20T10:16:39;100572.16;;;32.31;59.92
23223;BME280;11780;13.904;100.620;2023-03-20T10:19:29;100578.16;;;32.33;60.10
23223;BME280;11780;13.904;100.620;2023-03-20T10:22:15;100577.69;;;32.31;60.20
23223;BME280;11780;13.904;100.620;2023-03-20T10:25:26;100574.94;;;32.31;59.98
23223;BME280;11780;13.904;100.620;2023-03-20T10:27:59;100566.94;;;32.29;59.97
23223;BME280;11780;13.904;100.620;2023-03-20T10:30:49;100564.66;;;32.31;60.64
23223;BME280;11780;13.904;100.620;2023-03-20T10:36:23;100559.47;;;32.30;60.13
23223;BME280;11780;13.904;100.620;2023-03-20T10:42:04;100565.81;;;32.30;60.19
23223;BME280;11780;13.904;100.620;2023-03-20T10:44:43;100570.19;;;32.31;60.31
23223;BME280;11780;13.904;100.620;2023-03-20T10:47:17;100572.16;;;32.31;60.27
23223;BME280;11780;13.904;100.620;2023-03-20T10:50:00;100575.38;;;32.33;60.04
23223;BME280;11780;13.904;100.620;2023-03-20T10:52:34;100578.84;;;32.30;60.56
23223;BME280;11780;13.904;100.620;2023-03-20T10:55:12;100588.06;;;32.34;60.57
23223;BME280;11780;13.904;100.620;2023-03-20T10:57:49;100578.16;;;32.33;60.49
23223;BME280;11780;13.904;100.620;2023-03-20T11:00:24;100588.06;;;32.34;60.83
23223;BME280;11780;13.904;100.620;2023-03-20T11:02:55;100584.81;;;32.32;60.79
23223;BME280;11780;13.904;100.620;2023-03-20T11:05:33;100582.53;;;32.34;61.32
23223;BME280;11780;13.904;100.620;2023-03-20T11:08:11;100585.66;;;32.32;61.12
23223;BME280;11780;13.904;100.620;2023-03-20T11:10:42;100585.19;;;32.30;61.10
23223;BME280;11780;13.904;100.620;2023-03-20T11:13:26;100601.44;;;32.32;61.12
23223;BME280;11780;13.904;100.620;2023-03-20T11:18:39;100614.00;;;32.29;61.29
23223;BME280;11780;13.904;100.620;2023-03-20T11:21:18;100608.16;;;32.31;61.59
23223;BME280;11780;13.904;100.620;2023-03-20T11:23:49;100607.66;;;32.29;61.60
23223;BME280;11780;13.904;100.620;2023-03-20T11:26:35;100611.72;;;32.31;61.57
23223;BME280;11780;13.904;100.620;2023-03-20T11:29:15;100613.19;;;32.29;61.60
23223;BME280;11780;13.904;100.620;2023-03-20T11:31:47;100617.25;;;32.31;61.52
23223;BME280;11780;13.904;100.620;2023-03-20T11:34:22;100632.22;;;32.30;61.48
23223;BME280;11780;13.904;100.620;2023-03-20T11:36:58;100638.09;;;32.29;61.19
23223;BME280;11780;13.904;100.620;2023-03-20T11:39:36;100639.72;;;32.30;61.60
23223;BME280;11780;13.904;100.620;2023-03-20T11:42:22;100640.06;;;32.28;61.37
23223;BME280;11780;13.904;100.620;2023-03-20T11:45:01;100645.28;;;32.30;61.35
23223;BME280;11780;13.904;100.620;2023-03-20T11:47:34;100642.03;;;32.28;61.78
23223;BME280;11780;13.904;100.620;2023-03-20T11:50:05;100661.41;;;32.28;61.29
23223;BME280;11780;13.904;100.620;2023-03-20T11:52:36;100666.09;;;32.27;61.56
23223;BME280;11780;13.904;100.620;2023-03-20T11:55:21;100671.63;;;32.27;61.62
23223;BME280;11780;13.904;100.620;2023-03-20T11:57:56;100662.53;;;32.27;61.35
23223;BME280;11780;13.904;100.620;2023-03-20T12:00:48;100663.69;;;32.26;61.25
23223;BME280;11780;13.904;100.620;2023-03-20T12:03:51;100665.94;;;32.24;61.46
23223;BME280;11780;13.904;100.620;2023-03-20T12:06:25;100677.69;;;32.20;61.21
23223;BME280;11780;13.904;100.620;2023-03-20T12:09:09;100683.22;;;32.20;61.31
23223;BME280;11780;13.904;100.620;2023-03-20T12:21:03;100715.63;;;32.20;61.49
23223;BME280;11780;13.904;100.620;2023-03-20T12:24:30;100711.53;;;32.17;61.33
23223;BME280;11780;13.904;100.620;2023-03-20T12:27:23;100719.19;;;32.20;61.39
23223;BME280;11780;13.904;100.620;2023-03-20T12:30:15;100732.22;;;32.20;61.47
23223;BME280;11780;13.904;100.620;2023-03-20T12:36:01;100735.66;;;32.17;62.15
23223;BME280;11780;13.904;100.620;2023-03-20T12:38:33;100742.69;;;32.14;62.20
23223;BME280;11780;13.904;100.620;2023-03-20T12:41:28;100754.19;;;32.16;62.61
23223;BME280;11780;13.904;100.620;2023-03-20T12:44:11;100754.88;;;32.13;62.97
23223;BME280;11780;13.904;100.620;2023-03-20T13:01:17;100769.56;;;32.05;64.20
23223;BME280;11780;13.904;100.620;2023-03-20T13:04:13;100767.94;;;32.04;64.71
23223;BME280;11780;13.904;100.620;2023-03-20T13:07:04;100781.75;;;32.04;64.63
23223;BME280;11780;13.904;100.620;2023-03-20T13:09:54;100795.44;;;32.09;64.51
23223;BME280;11780;13.904;100.620;2023-03-20T13:20:35;100809.63;;;31.99;65.48
23223;BME280;11780;13.904;100.620;2023-03-20T13:33:04;100797.97;;;31.67;66.86
23223;BME280;11780;13.904;100.620;2023-03-20T13:38:22;100798.47;;;31.60;67.12
23223;BME280;11780;13.904;100.620;2023-03-20T13:40:59;100802.66;;;31.57;67.06
23223;BME280;11780;13.904;100.620;2023-03-20T13:43:36;100819.59;;;31.47;67.60
23223;BME280;11780;13.904;100.620;2023-03-20T13:52:12;100828.19;;;31.46;67.96
23223;BME280;11780;13.904;100.620;2023-03-20T13:54:52;100831.63;;;31.42;67.59
23223;BME280;11780;13.904;100.620;2023-03-20T13:58:07;100838.47;;;31.36;67.46
23223;BME280;11780;13.904;100.620;2023-03-20T14:00:50;100848.38;;;31.37;67.60
23223;BME280;11780;13.904;100.620;2023-03-20T14:03:37;100859.91;;;31.31;68.14
23223;BME280;11780;13.904;100.620;2023-03-20T14:09:34;100865.75;;;31.38;67.53
23223;BME280;11780;13.904;100.620;2023-03-20T14:12:08;100872.59;;;31.40;67.27
23223;BME280;11780;13.904;100.620;2023-03-20T14:14:47;100873.41;;;31.41;67.48
23223;BME280;11780;13.904;100.620;2023-03-20T14:17:29;100872.44;;;31.46;66.95
23223;BME280;11780;13.904;100.620;2023-03-20T14:20:11;100874.41;;;31.45;67.12
23223;BME280;11780;13.904;100.620;2023-03-20T14:22:43;100878.44;;;31.48;67.15
23223;BME280;11780;13.904;100.620;2023-03-20T14:25:17;100887.72;;;31.52;67.24
23223;BME280;11780;13.904;100.620;2023-03-20T14:30:50;100902.56;;;31.73;67.38
23223;BME280;11780;13.904;100.620;2023-03-20T14:33:43;100912.31;;;31.80;67.29
23223;BME280;11780;13.904;100.620;2023-03-20T14:36:21;100915.72;;;31.85;67.53
23223;BME280;11780;13.904;100.620;2023-03-20T14:38:54;100926.78;;;31.85;67.51
23223;BME280;11780;13.904;100.620;2023-03-20T14:41:38;100930.03;;;31.87;67.44
23223;BME280;11780;13.904;100.620;2023-03-20T14:53:19;100947.47;;;31.88;67.37
23223;BME280;11780;13.904;100.620;2023-03-20T15:01:04;100971.03;;;31.85;67.18
23223;BME280;11780;13.904;100.620;2023-03-20T15:03:36;100979.34;;;31.85;67.48
23223;BME280;11780;13.904;100.620;2023-03-20T15:06:08;100988.47;;;31.86;66.96
23223;BME280;11780;13.904;100.620;2023-03-20T15:08:50;100990.91;;;31.87;67.35
23223;BME280;11780;13.904;100.620;2023-03-20T15:11:20;100981.94;;;31.82;67.15
23223;BME280;11780;13.904;100.620;2023-03-20T15:13:52;100995.47;;;31.83;67.17
23223;BME280;11780;13.904;100.620;2023-03-20T15:16:28;100999.38;;;31.82;67.45
23223;BME280;11780;13.904;100.620;2023-03-20T15:18:59;100994.00;;;31.77;67.55
23223;BME280;11780;13.904;100.620;2023-03-20T15:21:36;100999.53;;;31.77;67.57
23223;BME280;11780;13.904;100.620;2023-03-20T15:24:07;101001.97;;;31.79;67.53
23223;BME280;11780;13.904;100.620;2023-03-20T15:26:37;101015.31;;;31.77;67.28
23223;BME280;11780;13.904;100.620;2023-03-20T15:29:12;101009.28;;;31.74;67.18
23223;BME280;11780;13.904;100.620;2023-03-20T15:31:44;101010.72;;;31.72;67.18
23223;BME280;11780;13.904;100.620;2023-03-20T15:34:29;101020.66;;;31.73;67.32
23223;BME280;11780;13.904;100.620;2023-03-20T15:37:01;101012.38;;;31.73;67.46
23223;BME280;11780;13.904;100.620;2023-03-20T15:39:47;101022.63;;;31.72;67.38
23223;BME280;11780;13.904;100.620;2023-03-20T15:42:20;101009.09;;;31.71;67.75
23223;BME280;11780;13.904;100.620;2023-03-20T15:44:53;101017.91;;;31.73;67.86